Time;durP1;ratioP1;P1;durP2;ratioP2;P2;SDS_P1;SDS_P2;PMS_P1;PMS_P2;Temp;Humidity;BMP_temperature;BMP_pressure;BME280_temperature;BME280_humidity;BME280_pressure;Samples;Min_cycle;Max_cycle;Signal;HPM_P1;HPM_P2
2023/09/23 00:00:23;;;;;;;;;3.67;3.67;;;;;-143.90;74.89;73340.94;4979753;28;102454;-74
2023/09/23 00:02:50;;;;;;;;;6.00;6.00;;;;;-143.90;76.67;73367.78;4989869;28;102121;-73
2023/09/23 00:05:17;;;;;;;;;12.67;12.00;;;;;-143.90;82.02;73425.66;4989384;28;101931;-73
2023/09/23 00:07:44;;;;;;;;;13.00;12.33;;;;;-143.90;83.65;73444.25;4990897;27;105585;-74
2023/09/23 00:10:11;;;;;;;;;14.00;12.67;;;;;-143.90;85.93;73481.44;4988285;27;104047;-73
2023/09/23 00:12:42;;;;;;;;;16.00;13.33;;;;;-143.90;88.17;73502.09;4989183;28;102044;-73
2023/09/23 00:15:12;;;;;;;;;15.67;13.67;;;;;-143.90;88.69;73516.56;4981471;28;101885;-73
2023/09/23 00:17:40;;;;;;;;;13.33;13.33;;;;;-143.90;91.47;73551.72;4986480;28;104226;-73
2023/09/23 00:20:14;;;;;;;;;15.33;13.67;;;;;-143.90;92.64;73555.84;4985244;27;101960;-74
2023/09/23 00:22:47;;;;;;;;;21.33;20.67;;;;;-143.90;94.19;73580.63;4987869;28;102226;-74
2023/09/23 00:25:18;;;;;;;;;17.33;14.00;;;;;-143.90;94.79;73588.91;4984505;28;102022;-74
2023/09/23 00:27:45;;;;;;;;;16.33;15.33;;;;;-143.90;95.11;73601.31;4972247;28;103991;-73
2023/09/23 00:30:13;;;;;;;;;17.67;15.67;;;;;-143.90;95.25;73605.44;4978149;28;102465;-73
2023/09/23 00:32:41;;;;;;;;;19.00;18.25;;;;;-143.90;96.90;73648.84;4975027;27;102105;-73
2023/09/23 00:35:11;;;;;;;;;16.00;16.00;;;;;-143.90;95.09;73642.63;4973694;28;102069;-73
2023/09/23 00:37:43;;;;;;;;;17.00;14.00;;;;;-143.90;93.77;73652.97;4976034;27;104455;-73
2023/09/23 00:40:17;;;;;;;;;11.67;11.00;;;;;-143.90;93.25;73659.16;4978768;28;102258;-72
2023/09/23 00:42:47;;;;;;;;;11.33;11.33;;;;;-143.90;94.23;73683.97;4980330;28;102952;-73
2023/09/23 00:45:16;;;;;;;;;16.75;16.50;;;;;-143.90;94.85;73717.03;4979204;28;102859;-74
2023/09/23 00:47:45;;;;;;;;;18.50;17.75;;;;;-143.90;95.33;73733.56;4977579;28;104986;-74
2023/09/23 00:50:18;;;;;;;;;21.50;20.00;;;;;-143.90;96.17;73764.56;4986802;27;101934;-73
2023/09/23 00:52:51;;;;;;;;;19.00;17.67;;;;;-143.90;96.21;73781.09;4985980;28;102077;-73
2023/09/23 00:55:24;;;;;;;;;24.75;22.75;;;;;-143.90;97.39;73824.50;4981930;28;102061;-73
2023/09/23 00:57:59;;;;;;;;;23.50;17.75;;;;;-143.90;97.60;73826.56;4987574;27;109019;-73
2023/09/23 01:00:29;;;;;;;;;20.50;18.75;;;;;-143.90;96.54;73843.09;4964275;27;102751;-73
2023/09/23 01:02:56;;;;;;;;;21.25;20.75;;;;;-143.90;96.81;73851.38;4982838;27;102388;-74
2023/09/23 01:05:27;;;;;;;;;21.25;19.25;;;;;-143.90;97.05;73865.84;4981180;28;104749;-72
2023/09/23 01:08:04;;;;;;;;;20.75;17.25;;;;;-143.90;97.46;73865.84;4976182;27;110392;-74
2023/09/23 01:10:31;;;;;;;;;17.50;16.50;;;;;-143.90;96.90;73890.63;4984396;28;102393;-73
2023/09/23 01:12:59;;;;;;;;;20.50;15.00;;;;;-143.90;97.26;73884.44;4983803;28;103267;-73
2023/09/23 01:15:28;;;;;;;;;15.00;14.00;;;;;-143.90;96.95;73884.44;4985549;27;102013;-74
2023/09/23 01:17:56;;;;;;;;;16.00;15.25;;;;;-143.90;97.32;73898.91;4977083;28;104368;-73
2023/09/23 01:20:25;;;;;;;;;26.75;20.25;;;;;-143.90;97.16;73905.09;4984802;27;103422;-75
2023/09/23 01:22:57;;;;;;;;;18.75;18.25;;;;;-143.90;97.99;73915.44;4993228;27;102687;-72
2023/09/23 01:25:25;;;;;;;;;19.50;18.50;;;;;-143.90;97.58;73919.56;4983150;28;102123;-74
2023/09/23 01:27:52;;;;;;;;;18.50;16.50;;;;;-143.90;98.52;73925.78;4985635;27;108282;-73
2023/09/23 01:30:21;;;;;;;;;20.00;17.00;;;;;-143.90;98.32;73936.09;4978121;28;102285;-73
2023/09/23 01:32:50;;;;;;;;;16.75;15.00;;;;;-143.90;98.16;73936.09;4980607;27;101848;-74
2023/09/23 01:35:17;;;;;;;;;18.00;14.00;;;;;-143.90;97.70;73938.19;4990176;27;102365;-73
2023/09/23 01:37:45;;;;;;;;;11.50;9.00;;;;;-143.90;96.97;73938.19;4982913;28;104145;-73
2023/09/23 01:40:19;;;;;;;;;13.75;13.50;;;;;-143.90;96.59;73960.91;4981861;27;102093;-74
2023/09/23 01:42:49;;;;;;;;;12.25;11.50;;;;;-143.90;97.39;73965.03;4979004;27;102414;-74
2023/09/23 01:45:19;;;;;;;;;13.25;12.25;;;;;-143.90;97.17;73973.31;4979495;28;103627;-72
2023/09/23 01:47:46;;;;;;;;;12.00;11.25;;;;;-143.90;96.98;73989.84;4982163;28;103997;-74
2023/09/23 01:50:13;;;;;;;;;9.25;9.00;;;;;-143.90;97.39;73991.91;4986478;28;102016;-73
2023/09/23 01:52:40;;;;;;;;;9.75;7.00;;;;;-143.90;97.29;73998.13;4986053;28;102315;-74
2023/09/23 01:55:10;;;;;;;;;10.25;9.00;;;;;-143.90;97.23;73996.03;4987620;27;102053;-73
2023/09/23 01:57:38;;;;;;;;;10.33;8.67;;;;;-143.90;96.93;73993.97;4988583;27;104272;-73
2023/09/23 02:00:15;;;;;;;;;13.00;11.50;;;;;-143.90;97.34;74022.91;4990239;27;101915;-73
2023/09/23 02:02:41;;;;;;;;;7.25;7.25;;;;;-143.90;98.05;74020.84;4981255;28;105404;-73
2023/09/23 02:05:09;;;;;;;;;11.00;9.00;;;;;-143.90;97.91;74018.78;4981556;28;102476;-73
2023/09/23 02:07:35;;;;;;;;;10.50;10.00;;;;;-143.90;97.92;74024.97;4987226;28;104043;-74
2023/09/23 02:10:02;;;;;;;;;9.00;8.50;;;;;-143.90;98.39;74033.25;4991084;28;101982;-73
2023/09/23 02:12:29;;;;;;;;;11.00;10.00;;;;;-143.90;98.59;74043.59;4981873;28;107732;-73
2023/09/23 02:14:56;;;;;;;;;16.75;16.00;;;;;-143.90;98.88;74060.13;4989534;28;102546;-72
2023/09/23 02:17:22;;;;;;;;;11.50;11.25;;;;;-143.90;100.00;74045.66;4978715;28;103423;-73
2023/09/23 02:19:52;;;;;;;;;15.25;12.00;;;;;-143.90;100.00;74072.50;4988287;28;102429;-72
2023/09/23 02:22:19;;;;;;;;;9.75;9.00;;;;;-143.90;100.00;74068.38;4991717;28;102216;-72
2023/09/23 02:24:46;;;;;;;;;13.25;11.50;;;;;-143.90;100.00;74076.66;4985624;28;102105;-72
2023/09/23 02:27:14;;;;;;;;;9.75;8.00;;;;;-143.90;100.00;74068.38;4984641;28;103269;-73
2023/09/23 02:29:41;;;;;;;;;18.75;15.75;;;;;-143.90;100.00;74072.50;4987327;28;103155;-73
2023/09/23 02:32:07;;;;;;;;;13.25;11.00;;;;;-143.90;100.00;74070.44;4973584;28;104916;-72
2023/09/23 02:34:36;;;;;;;;;13.00;12.25;;;;;-143.90;100.00;74074.59;4982646;27;104635;-73
2023/09/23 02:37:04;;;;;;;;;14.00;12.75;;;;;-143.90;100.00;74074.59;4968348;28;104148;-73
2023/09/23 02:39:31;;;;;;;;;8.00;8.00;;;;;-143.90;100.00;74066.31;4978321;27;102384;-72
2023/09/23 02:41:59;;;;;;;;;7.50;7.00;;;;;-143.90;100.00;74078.72;4977381;28;102105;-73
2023/09/23 02:44:29;;;;;;;;;13.25;12.00;;;;;-143.90;100.00;74084.91;4983558;27;102332;-72
2023/09/23 02:46:56;;;;;;;;;8.00;7.25;;;;;-143.90;100.00;74093.19;4985821;27;103984;-73
2023/09/23 02:49:23;;;;;;;;;12.25;11.00;;;;;-143.90;100.00;74086.97;4982239;28;101857;-71
2023/09/23 02:51:50;;;;;;;;;11.00;8.00;;;;;-143.90;100.00;74089.06;4984633;27;102034;-74
2023/09/23 02:54:17;;;;;;;;;8.25;7.25;;;;;-143.90;100.00;74111.78;4984777;28;102233;-72
2023/09/23 02:56:47;;;;;;;;;10.75;9.50;;;;;-143.90;100.00;74122.13;4988039;28;103615;-72
2023/09/23 02:59:15;;;;;;;;;10.00;10.00;;;;;-143.90;100.00;74107.66;4974164;28;102252;-75
2023/09/23 03:01:51;;;;;;;;;8.00;6.00;;;;;-143.90;100.00;74103.53;4984885;27;102322;-74
2023/09/23 03:04:23;;;;;;;;;6.00;5.00;;;;;-143.90;100.00;74109.72;4978796;28;102300;-75
2023/09/23 03:06:59;;;;;;;;;4.75;3.00;;;;;-143.90;100.00;74107.66;4984961;27;104209;-75
2023/09/23 03:09:31;;;;;;;;;7.50;7.25;;;;;-143.90;99.75;74097.31;4988404;27;102295;-74
2023/09/23 03:12:00;;;;;;;;;9.25;8.75;;;;;-143.90;100.00;74101.44;4981935;27;102054;-75
2023/09/23 03:14:42;;;;;;;;;9.50;8.25;;;;;-143.90;99.60;74095.25;4979308;27;102049;-74
2023/09/23 03:17:12;;;;;;;;;5.00;4.00;;;;;-143.90;100.00;74101.44;4983303;28;109628;-75
2023/09/23 03:19:39;;;;;;;;;5.00;4.00;;;;;-143.90;99.47;74105.59;4982406;27;101959;-74
2023/09/23 03:22:07;;;;;;;;;9.25;7.75;;;;;-143.90;100.00;74109.72;4988204;28;102424;-74
2023/09/23 03:24:34;;;;;;;;;8.00;8.00;;;;;-143.90;100.00;74130.38;4988913;27;102705;-74
2023/09/23 03:27:01;;;;;;;;;7.75;7.00;;;;;-143.90;100.00;74118.00;4980926;28;104157;-75
2023/09/23 03:29:28;;;;;;;;;3.67;3.67;;;;;-143.90;100.00;74111.78;4980644;27;102376;-75
2023/09/23 03:31:56;;;;;;;;;6.00;5.50;;;;;-143.90;100.00;74122.13;4982200;27;102424;-75
2023/09/23 03:34:23;;;;;;;;;3.75;3.50;;;;;-143.90;99.90;74136.59;4992007;27;102032;-75
2023/09/23 03:36:53;;;;;;;;;2.00;2.00;;;;;-143.90;100.00;74138.66;4980702;28;104559;-75
2023/09/23 03:39:21;;;;;;;;;2.00;2.00;;;;;-143.90;100.00;74138.66;4976674;28;102099;-75
2023/09/23 03:41:48;;;;;;;;;1.00;1.00;;;;;-143.90;99.91;74153.13;4984181;28;101942;-75
2023/09/23 03:44:15;;;;;;;;;2.00;1.33;;;;;-143.90;99.54;74151.06;4992643;28;102250;-75
2023/09/23 03:46:45;;;;;;;;;1.00;0.33;;;;;-143.90;100.00;74163.47;4981705;27;108765;-74
2023/09/23 03:49:12;;;;;;;;;4.00;4.00;;;;;-143.90;99.13;74157.25;4985016;28;102004;-73
2023/09/23 03:51:40;;;;;;;;;2.00;1.67;;;;;-143.90;99.86;74151.06;4985709;27;102219;-73
2023/09/23 03:54:06;;;;;;;;;2.00;2.00;;;;;-143.90;99.59;74155.19;4982371;27;104593;-73
2023/09/23 03:56:34;;;;;;;;;3.00;2.67;;;;;-143.90;99.49;74159.31;4981588;27;104274;-73
2023/09/23 03:59:05;;;;;;;;;5.00;3.67;;;;;-143.90;100.00;74157.25;4978862;27;102006;-73
2023/09/23 04:01:38;;;;;;;;;3.00;3.00;;;;;-143.90;99.61;74155.19;4983711;28;102531;-74
2023/09/23 04:04:07;;;;;;;;;2.00;2.00;;;;;-143.90;99.72;74159.31;4983783;28;102325;-73
2023/09/23 04:06:34;;;;;;;;;3.00;3.00;;;;;-143.90;99.48;74155.19;4988321;28;104408;-73
2023/09/23 04:09:00;;;;;;;;;2.33;2.00;;;;;-143.90;99.79;74134.53;4983865;28;102066;-73
2023/09/23 04:11:27;;;;;;;;;2.00;2.00;;;;;-143.90;99.56;74140.72;4986235;28;101878;-74
2023/09/23 04:13:54;;;;;;;;;2.00;2.00;;;;;-143.90;99.48;74130.38;4981370;27;102025;-74
2023/09/23 04:16:22;;;;;;;;;2.00;2.00;;;;;-143.90;99.46;74140.72;4985995;27;103269;-74
2023/09/23 04:18:51;;;;;;;;;2.00;2.00;;;;;-143.90;99.60;74153.13;4988403;28;102163;-74
2023/09/23 04:21:22;;;;;;;;;2.00;2.00;;;;;-143.90;100.00;74159.31;4982193;28;102902;-74
2023/09/23 04:23:49;;;;;;;;;1.00;1.00;;;;;-143.90;100.00;74155.19;4987990;28;102282;-74
2023/09/23 04:26:16;;;;;;;;;0.67;0.67;;;;;-143.90;100.00;74173.78;4990326;28;104084;-74
2023/09/23 04:28:44;;;;;;;;;1.00;1.00;;;;;-143.90;99.93;74153.13;4989830;28;102422;-74
2023/09/23 04:31:12;;;;;;;;;1.00;1.00;;;;;-143.90;99.93;74159.31;4978641;28;105146;-74
2023/09/23 04:33:39;;;;;;;;;1.00;1.00;;;;;-143.90;99.32;74177.94;4990486;27;101982;-74
2023/09/23 04:36:10;;;;;;;;;1.33;1.00;;;;;-143.90;98.68;74155.19;4985052;28;104125;-74
2023/09/23 04:38:37;;;;;;;;;1.00;1.00;;;;;-143.90;98.82;74153.13;4984443;27;103616;-74
2023/09/23 04:41:05;;;;;;;;;1.00;1.00;;;;;-143.90;98.30;74161.38;4986834;28;102008;-74
2023/09/23 04:43:32;;;;;;;;;2.00;2.00;;;;;-143.90;98.60;74167.59;4985462;27;102436;-74
2023/09/23 04:45:59;;;;;;;;;1.00;1.00;;;;;-143.90;98.07;74165.53;4988061;28;103951;-74
2023/09/23 04:48:26;;;;;;;;;0.00;0.00;;;;;-143.90;97.87;74167.59;4986763;27;101893;-74
2023/09/23 04:50:56;;;;;;;;;1.00;0.00;;;;;-143.90;97.90;74171.72;4980929;28;102548;-74
2023/09/23 04:53:23;;;;;;;;;0.00;0.00;;;;;-143.90;97.62;74186.19;4989328;27;101937;-74
2023/09/23 04:55:50;;;;;;;;;1.00;1.00;;;;;-143.90;97.64;74180.00;4981415;28;104261;-74
2023/09/23 04:58:17;;;;;;;;;0.00;0.00;;;;;-143.90;97.50;74180.00;4981992;28;102183;-74
2023/09/23 05:00:43;;;;;;;;;0.00;0.00;;;;;-143.90;97.26;74198.59;4988578;28;101983;-74
2023/09/23 05:03:11;;;;;;;;;1.00;0.67;;;;;-143.90;97.38;74190.31;4984950;28;102840;-74
2023/09/23 05:05:38;;;;;;;;;0.00;0.00;;;;;-143.90;97.20;74192.41;4987416;28;104558;-73
2023/09/23 05:08:09;;;;;;;;;1.00;0.33;;;;;-143.90;97.39;74213.06;4988487;28;102198;-73
2023/09/23 05:10:39;;;;;;;;;1.00;0.00;;;;;-143.90;98.30;74223.41;4984102;27;102321;-74
2023/09/23 05:13:08;;;;;;;;;0.33;0.00;;;;;-143.90;98.42;74221.31;4985958;28;105190;-73
2023/09/23 05:15:34;;;;;;;;;1.00;1.00;;;;;-143.90;98.53;74254.41;4988909;27;104127;-72
2023/09/23 05:18:01;;;;;;;;;1.00;0.00;;;;;-143.90;98.28;74225.47;4987543;28;102081;-73
2023/09/23 05:20:28;;;;;;;;;0.00;0.00;;;;;-143.90;98.15;74217.19;4982023;27;103414;-73
2023/09/23 05:22:55;;;;;;;;;0.00;0.00;;;;;-143.90;98.30;74221.31;4990106;27;102026;-74
2023/09/23 05:25:24;;;;;;;;;1.00;0.00;;;;;-143.90;97.88;74242.00;4987236;27;104323;-73
2023/09/23 05:27:54;;;;;;;;;1.33;1.33;;;;;-143.90;97.98;74235.78;4988679;28;102377;-73
2023/09/23 05:30:22;;;;;;;;;1.00;1.00;;;;;-143.90;98.06;74223.41;4989333;28;102533;-73
2023/09/23 05:32:49;;;;;;;;;1.33;1.00;;;;;-143.90;97.88;74223.41;4992667;27;102009;-73
2023/09/23 05:35:16;;;;;;;;;1.00;1.00;;;;;-143.90;98.17;74227.53;4990177;28;107316;-73
2023/09/23 05:37:43;;;;;;;;;1.00;1.00;;;;;-143.90;98.13;74225.47;4989305;27;102154;-73
2023/09/23 05:40:23;;;;;;;;;1.00;1.00;;;;;-143.90;98.62;74237.88;4993708;28;102068;-73
2023/09/23 05:42:51;;;;;;;;;1.00;1.00;;;;;-143.90;98.67;74229.59;4989532;27;102832;-73
2023/09/23 05:45:18;;;;;;;;;1.00;1.00;;;;;-143.90;98.65;74239.94;4991233;28;103717;-72
2023/09/23 05:47:45;;;;;;;;;3.00;2.00;;;;;-143.90;99.53;74262.66;4990955;27;102332;-73
2023/09/23 05:50:16;;;;;;;;;3.00;3.00;;;;;-143.90;99.81;74273.00;4986258;28;101938;-73
2023/09/23 05:52:45;;;;;;;;;2.00;2.00;;;;;-143.90;100.00;74275.06;4992354;28;102594;-73
2023/09/23 05:55:13;;;;;;;;;2.00;2.00;;;;;-143.90;99.79;74285.41;4984638;28;103711;-73
2023/09/23 05:57:40;;;;;;;;;2.00;0.67;;;;;-143.90;99.25;74295.75;4993319;27;102182;-73
2023/09/23 06:00:10;;;;;;;;;2.00;2.00;;;;;-143.90;99.25;74293.66;4991804;27;102009;-73
2023/09/23 06:02:41;;;;;;;;;0.00;0.00;;;;;-143.90;98.86;74285.41;4990822;28;102211;-73
2023/09/23 06:05:08;;;;;;;;;1.00;0.00;;;;;-143.90;99.58;74270.94;4989078;27;105040;-73
2023/09/23 06:07:35;;;;;;;;;0.00;0.00;;;;;-143.90;99.55;74270.94;4974417;28;102001;-73
2023/09/23 06:10:03;;;;;;;;;2.00;1.00;;;;;-143.90;99.43;74283.34;4990067;28;101930;-73
2023/09/23 06:12:32;;;;;;;;;2.00;1.33;;;;;-143.90;99.39;74285.41;4991255;27;102248;-73
2023/09/23 06:14:59;;;;;;;;;0.00;0.00;;;;;-143.90;99.57;74291.59;4989010;28;104281;-74
2023/09/23 06:17:28;;;;;;;;;0.00;0.00;;;;;-143.90;99.05;74304.00;4990298;27;102249;-74
2023/09/23 06:19:59;;;;;;;;;2.00;1.33;;;;;-143.90;99.57;74312.28;4990624;28;101906;-73
2023/09/23 06:22:27;;;;;;;;;1.00;1.00;;;;;-143.90;99.54;74299.88;4990288;27;102422;-73
2023/09/23 06:24:55;;;;;;;;;2.00;1.00;;;;;-143.90;100.00;74299.88;4989170;28;104201;-74
2023/09/23 06:27:22;;;;;;;;;1.00;1.00;;;;;-143.90;100.00;74306.06;4991645;27;104623;-73
2023/09/23 06:29:48;;;;;;;;;1.00;0.00;;;;;-143.90;99.51;74314.34;4995108;27;102511;-73
2023/09/23 06:32:15;;;;;;;;;1.33;1.00;;;;;-143.90;98.88;74328.81;4984808;27;102247;-73
2023/09/23 06:34:41;;;;;;;;;2.00;1.00;;;;;-143.90;99.21;74328.81;4989768;27;104504;-73
2023/09/23 06:37:08;;;;;;;;;1.00;1.00;;;;;-143.90;99.23;74324.69;4990145;28;107854;-73
2023/09/23 06:39:35;;;;;;;;;1.33;1.33;;;;;-143.90;99.25;74335.00;4979956;27;102022;-73
2023/09/23 06:42:02;;;;;;;;;1.00;1.00;;;;;-143.90;99.33;74337.06;4987169;28;102310;-73
2023/09/23 06:44:28;;;;;;;;;3.00;2.00;;;;;-143.90;99.23;74330.88;4982984;28;103006;-73
2023/09/23 06:46:55;;;;;;;;;2.00;1.00;;;;;-143.90;99.39;74332.94;4994594;28;102173;-73
2023/09/23 06:49:22;;;;;;;;;3.00;2.00;;;;;-143.90;99.27;74328.81;4987888;28;101992;-73
2023/09/23 06:51:49;;;;;;;;;2.00;1.00;;;;;-143.90;98.79;74328.81;4993658;28;102046;-73
2023/09/23 06:54:15;;;;;;;;;3.00;2.00;;;;;-143.90;98.51;74347.41;4992853;27;104082;-73
2023/09/23 06:56:42;;;;;;;;;2.33;2.00;;;;;-143.90;98.82;74337.06;4988727;28;102407;-73
2023/09/23 06:59:09;;;;;;;;;1.33;1.00;;;;;-143.90;99.16;74332.94;4986821;28;102156;-73
2023/09/23 07:01:36;;;;;;;;;1.67;1.33;;;;;-143.90;99.38;74332.94;4986360;27;103893;-74
2023/09/23 07:04:04;;;;;;;;;2.00;1.00;;;;;-143.90;99.02;74337.06;4981606;27;103700;-73
2023/09/23 07:06:31;;;;;;;;;2.33;1.67;;;;;-143.90;98.94;74330.88;4987854;28;102419;-73
2023/09/23 07:08:58;;;;;;;;;1.00;1.00;;;;;-143.90;99.00;74332.94;4990510;28;101934;-74
2023/09/23 07:11:24;;;;;;;;;2.33;2.00;;;;;-143.90;99.49;74335.00;4998622;27;101922;-73
2023/09/23 07:13:51;;;;;;;;;2.00;2.00;;;;;-143.90;99.49;74312.28;4987106;28;110178;-73
2023/09/23 07:16:18;;;;;;;;;2.33;1.67;;;;;-143.90;98.93;74308.13;4989222;27;102012;-72
2023/09/23 07:18:45;;;;;;;;;2.00;2.00;;;;;-143.90;98.44;74308.13;4989503;27;102209;-72
2023/09/23 07:21:12;;;;;;;;;2.00;2.00;;;;;-143.90;98.09;74301.94;4989517;27;102778;-73
2023/09/23 07:23:39;;;;;;;;;2.33;2.33;;;;;-143.90;98.02;74299.88;4990882;27;103887;-73
2023/09/23 07:26:06;;;;;;;;;3.00;2.00;;;;;-143.90;97.60;74299.88;4983788;28;103553;-73
2023/09/23 07:28:33;;;;;;;;;2.00;2.00;;;;;-143.90;97.13;74304.00;4982096;27;102054;-72
2023/09/23 07:31:00;;;;;;;;;2.00;2.00;;;;;-143.90;97.50;74301.94;4992498;27;102033;-73
2023/09/23 07:33:27;;;;;;;;;2.00;2.00;;;;;-143.90;97.27;74304.00;4986537;28;104057;-73
2023/09/23 07:35:53;;;;;;;;;1.00;1.00;;;;;-143.90;97.14;74310.22;4979768;28;102217;-72
2023/09/23 07:38:21;;;;;;;;;2.00;2.00;;;;;-143.90;96.42;74332.94;4979637;27;102112;-72
2023/09/23 07:40:48;;;;;;;;;3.00;3.00;;;;;-143.90;97.36;74332.94;4983903;28;102089;-73
2023/09/23 07:43:15;;;;;;;;;3.00;3.00;;;;;-143.90;97.36;74341.22;4978236;27;104231;-72
2023/09/23 07:45:42;;;;;;;;;3.00;2.00;;;;;-143.90;97.29;74345.34;4976256;28;102236;-73
2023/09/23 07:48:09;;;;;;;;;3.00;2.00;;;;;-143.90;96.75;74349.47;4979561;27;101925;-72
2023/09/23 07:50:36;;;;;;;;;2.67;2.00;;;;;-143.90;96.98;74349.47;4984543;28;102708;-73
2023/09/23 07:53:02;;;;;;;;;1.00;1.00;;;;;-143.90;97.77;74349.47;4980076;27;108012;-73
2023/09/23 07:55:30;;;;;;;;;4.00;2.00;;;;;-143.90;97.45;74355.69;4979963;28;102051;-73
2023/09/23 07:57:57;;;;;;;;;2.67;2.00;;;;;-143.90;96.73;74353.63;4983328;28;102030;-73
2023/09/23 08:00:24;;;;;;;;;1.00;1.00;;;;;-143.90;96.90;74357.75;4973714;28;102407;-72
2023/09/23 08:02:54;;;;;;;;;2.00;1.00;;;;;-143.90;95.57;74372.22;4977509;28;104258;-73
2023/09/23 08:05:24;;;;;;;;;1.00;1.00;;;;;-143.90;96.28;74357.75;4981029;27;102218;-73
2023/09/23 08:07:51;;;;;;;;;0.33;0.33;;;;;-143.90;96.35;74353.63;4978419;28;101927;-73
2023/09/23 08:10:18;;;;;;;;;1.00;1.00;;;;;-143.90;96.32;74349.47;4980245;27;102342;-73
2023/09/23 08:12:45;;;;;;;;;2.00;1.00;;;;;-143.90;95.71;74345.34;4982705;28;105457;-71
2023/09/23 08:15:12;;;;;;;;;1.00;0.00;;;;;-143.90;96.17;74341.22;4986445;28;102437;-73
2023/09/23 08:17:39;;;;;;;;;0.00;0.00;;;;;-143.90;96.50;74349.47;4986696;28;102236;-72
2023/09/23 08:20:29;;;;;;;;;1.00;1.00;;;;;-143.90;95.78;74357.75;4987154;27;102256;-74
2023/09/23 08:22:56;;;;;;;;;2.00;2.00;;;;;-143.90;95.80;74366.00;4976934;28;108129;-72
2023/09/23 08:25:25;;;;;;;;;0.33;0.33;;;;;-143.90;96.17;74370.16;4992280;28;102034;-73
2023/09/23 08:27:53;;;;;;;;;1.33;1.00;;;;;-143.90;96.43;74374.28;4983965;28;102003;-74
2023/09/23 08:30:21;;;;;;;;;1.00;1.00;;;;;-143.90;96.56;74384.63;4984283;28;102171;-74
2023/09/23 08:32:48;;;;;;;;;1.00;1.00;;;;;-143.90;96.90;74384.63;4974465;27;104375;-73
2023/09/23 08:35:15;;;;;;;;;0.67;0.67;;;;;-143.90;96.59;74394.94;4986088;28;102009;-73
2023/09/23 08:37:45;;;;;;;;;2.00;2.00;;;;;-143.90;96.73;74388.75;4988053;28;102591;-74
2023/09/23 08:40:13;;;;;;;;;3.67;3.00;;;;;-143.90;97.49;74388.75;4990452;28;102106;-73
2023/09/23 08:42:39;;;;;;;;;4.00;3.00;;;;;-143.90;98.00;74394.94;4996028;28;103870;-72
2023/09/23 08:45:10;;;;;;;;;3.33;3.33;;;;;-143.90;98.33;74399.09;4993327;28;102424;-73
2023/09/23 08:47:37;;;;;;;;;4.50;3.75;;;;;-143.90;98.82;74399.09;4959771;28;102109;-73
2023/09/23 08:50:08;;;;;;;;;5.00;3.00;;;;;-143.90;99.46;74405.28;4988648;27;102392;-72
2023/09/23 08:52:35;;;;;;;;;4.67;4.67;;;;;-143.90;99.38;74403.22;4985257;28;105429;-73
2023/09/23 08:55:07;;;;;;;;;2.00;1.67;;;;;-143.90;99.19;74407.34;4985036;27;102009;-72
2023/09/23 08:57:34;;;;;;;;;5.00;5.00;;;;;-143.90;99.46;74405.28;4986684;28;103095;-72
2023/09/23 09:00:01;;;;;;;;;3.25;3.25;;;;;-143.90;98.60;74405.28;4984092;27;102626;-73
2023/09/23 09:02:29;;;;;;;;;5.00;5.00;;;;;-143.90;99.49;74425.97;4987409;28;104198;-73
2023/09/23 09:04:57;;;;;;;;;3.75;3.00;;;;;-143.90;100.00;74415.63;4994391;27;102380;-72
2023/09/23 09:07:38;;;;;;;;;5.67;4.67;;;;;-143.90;99.16;74409.41;4992561;28;102175;-73
2023/09/23 09:10:05;;;;;;;;;3.33;3.00;;;;;-143.90;98.57;74407.34;4991555;27;103106;-72
2023/09/23 09:12:34;;;;;;;;;4.00;3.00;;;;;-143.90;98.34;74411.50;4982822;28;104015;-72
2023/09/23 09:15:00;;;;;;;;;2.00;2.00;;;;;-143.90;98.80;74394.94;4990216;28;102329;-73
2023/09/23 09:17:27;;;;;;;;;1.67;1.00;;;;;-143.90;99.28;74386.69;4993473;27;102662;-72
2023/09/23 09:19:54;;;;;;;;;3.00;2.00;;;;;-143.90;98.72;74378.41;4991487;27;102448;-73
2023/09/23 09:22:21;;;;;;;;;3.67;3.67;;;;;-143.90;98.76;74374.28;4987461;28;103956;-72
2023/09/23 09:24:47;;;;;;;;;4.00;4.00;;;;;-143.90;98.85;74376.34;4988257;28;102307;-73
2023/09/23 09:27:15;;;;;;;;;2.33;2.33;;;;;-143.90;98.90;74361.88;4985153;28;102991;-73
2023/09/23 09:29:43;;;;;;;;;3.00;2.00;;;;;-143.90;98.86;74351.53;4998467;28;102061;-73
2023/09/23 09:32:10;;;;;;;;;3.33;2.67;;;;;-143.90;97.55;74349.47;4990545;27;108459;-73
2023/09/23 09:34:47;;;;;;;;;2.00;2.00;;;;;-143.90;97.55;74355.69;4989009;27;102274;-73
2023/09/23 09:37:14;;;;;;;;;3.33;3.33;;;;;-143.90;97.75;74355.69;4979227;27;102223;-74
2023/09/23 09:39:51;;;;;;;;;4.33;4.33;;;;;-143.90;97.11;74345.34;4992107;28;102315;-73
2023/09/23 09:42:30;;;;;;;;;3.33;2.33;;;;;-143.90;97.92;74345.34;4989484;27;107742;-73
2023/09/23 09:44:57;;;;;;;;;4.00;3.00;;;;;-143.90;97.49;74345.34;4994216;27;102228;-73
2023/09/23 09:47:27;;;;;;;;;3.00;3.00;;;;;-143.90;97.48;74347.41;4993244;28;103178;-73
2023/09/23 09:49:54;;;;;;;;;4.00;4.00;;;;;-143.90;97.04;74349.47;4990165;28;102025;-73
2023/09/23 09:52:23;;;;;;;;;3.00;3.00;;;;;-143.90;96.28;74347.41;4987958;28;103947;-73
2023/09/23 09:54:55;;;;;;;;;4.67;3.00;;;;;-143.90;96.98;74355.69;4983125;28;102193;-73
2023/09/23 09:57:23;;;;;;;;;1.00;1.00;;;;;-143.90;97.44;74353.63;4982812;28;102383;-73
2023/09/23 09:59:51;;;;;;;;;4.00;3.00;;;;;-143.90;97.82;74347.41;4981242;28;103801;-73
2023/09/23 10:02:18;;;;;;;;;3.00;3.00;;;;;-143.90;97.62;74330.88;4983730;28;103319;-73
2023/09/23 10:04:47;;;;;;;;;2.00;2.00;;;;;-143.90;97.48;74328.81;4979797;27;104619;-73
2023/09/23 10:07:14;;;;;;;;;3.00;2.00;;;;;-143.90;97.57;74312.28;4990399;28;102241;-73
2023/09/23 10:09:53;;;;;;;;;4.50;3.00;;;;;-143.90;97.99;74312.28;4991974;28;101988;-73
2023/09/23 10:12:25;;;;;;;;;2.00;1.67;;;;;-143.90;98.93;74312.28;4987284;28;107947;-73
2023/09/23 10:14:53;;;;;;;;;1.67;1.33;;;;;-143.90;97.40;74306.06;4989473;28;102156;-73
2023/09/23 10:17:35;;;;;;;;;2.00;2.00;;;;;-143.90;97.49;74301.94;4983843;27;104822;-73
2023/09/23 10:20:08;;;;;;;;;3.00;2.00;;;;;-143.90;96.67;74297.81;4983143;28;102419;-73
2023/09/23 10:22:35;;;;;;;;;2.00;2.00;;;;;-143.90;97.05;74295.75;4979464;27;103982;-73
2023/09/23 10:25:06;;;;;;;;;3.67;3.67;;;;;-143.90;98.67;74316.41;4967419;28;102254;-72
2023/09/23 10:27:36;;;;;;;;;4.00;4.00;;;;;-143.90;98.55;74314.34;4985808;28;102919;-73
2023/09/23 10:30:04;;;;;;;;;3.33;3.00;;;;;-143.90;97.90;74310.22;4975937;28;102367;-73
2023/09/23 10:32:31;;;;;;;;;3.00;3.00;;;;;-143.90;97.81;74314.34;4984916;28;104617;-74
2023/09/23 10:34:58;;;;;;;;;1.33;1.33;;;;;-143.90;97.99;74316.41;4969898;27;102096;-73
2023/09/23 10:37:26;;;;;;;;;2.33;2.00;;;;;-143.90;97.60;74324.69;4978021;27;101977;-73
2023/09/23 10:39:53;;;;;;;;;2.00;2.00;;;;;-143.90;98.27;74328.81;4981990;28;102000;-73
2023/09/23 10:42:19;;;;;;;;;1.00;0.00;;;;;-143.90;97.92;74332.94;4984948;28;104367;-73
2023/09/23 10:44:47;;;;;;;;;1.00;1.00;;;;;-143.90;97.57;74343.28;4984682;28;102252;-74
2023/09/23 10:47:14;;;;;;;;;2.00;2.00;;;;;-143.90;97.09;74349.47;4978939;28;102064;-73
2023/09/23 10:49:41;;;;;;;;;2.00;1.00;;;;;-143.90;96.77;74349.47;4983201;27;102012;-72
2023/09/23 10:52:07;;;;;;;;;1.00;1.00;;;;;-143.90;96.95;74357.75;4973248;28;104074;-73
2023/09/23 10:54:36;;;;;;;;;1.00;1.00;;;;;-143.90;97.34;74361.88;4981132;28;102289;-73
2023/09/23 10:57:03;;;;;;;;;2.00;1.00;;;;;-143.90;98.01;74378.41;4981871;27;102041;-73
2023/09/23 10:59:30;;;;;;;;;2.00;1.00;;;;;-143.90;98.39;74376.34;4980138;28;102380;-73
2023/09/23 11:01:57;;;;;;;;;1.33;1.33;;;;;-143.90;98.31;74386.69;4983609;27;103039;-74
2023/09/23 11:04:24;;;;;;;;;0.00;0.00;;;;;-143.90;98.64;74390.81;4982028;28;102435;-73
2023/09/23 11:06:51;;;;;;;;;1.00;1.00;;;;;-143.90;98.42;74378.41;4989688;27;102430;-73
2023/09/23 11:09:20;;;;;;;;;3.33;1.00;;;;;-143.90;97.73;74386.69;4993118;28;101982;-72